Time;durP1;ratioP1;P1;durP2;ratioP2;P2;SDS_P1;SDS_P2;PMS_P1;PMS_P2;Temp;Humidity;BMP_temperature;BMP_pressure;BME280_temperature;BME280_humidity;BME280_pressure;Samples;Min_cycle;Max_cycle;Signal;HPM_P1;HPM_P2
2021/01/23 00:02:23;;;;;;;14.60;10.77;;;;;;;-144.99;100.00;52545.94;5026450;28;20672;-74
2021/01/23 00:04:49;;;;;;;18.77;11.33;;;;;;;-144.99;100.00;52556.13;5012605;28;20617;-74
2021/01/23 00:07:15;;;;;;;18.00;12.77;;;;;;;-144.99;100.00;52537.78;5023825;28;20635;-74
2021/01/23 00:09:41;;;;;;;17.63;11.43;;;;;;;-144.99;100.00;52501.09;5015306;28;20634;-75
2021/01/23 00:12:09;;;;;;;19.43;11.63;;;;;;;-144.99;100.00;52529.63;5040951;28;20682;-76
2021/01/23 00:14:35;;;;;;;23.80;10.97;;;;;;;-144.99;100.00;52525.56;5022001;28;20621;-75
2021/01/23 00:17:01;;;;;;;15.13;11.47;;;;;;;-144.99;100.00;52488.84;5015261;28;20729;-74
2021/01/23 00:19:27;;;;;;;14.80;10.40;;;;;;;-144.99;100.00;52550.00;5015837;28;20630;-74
2021/01/23 00:21:53;;;;;;;20.90;11.80;;;;;;;-144.99;100.00;52558.16;5019191;28;20664;-73
2021/01/23 00:24:20;;;;;;;25.73;12.50;;;;;;;-144.99;100.00;52513.31;5015498;28;20626;-74
2021/01/23 00:26:46;;;;;;;21.83;13.57;;;;;;;-144.99;100.00;52517.41;5022414;28;20645;-73
2021/01/23 00:29:14;;;;;;;19.57;12.97;;;;;;;-144.99;100.00;52519.44;5019782;28;20645;-74
2021/01/23 00:31:40;;;;;;;20.57;12.70;;;;;;;-144.99;100.00;52509.25;5017436;28;20680;-74
2021/01/23 00:34:06;;;;;;;15.47;12.60;;;;;;;-144.99;100.00;52562.25;5018130;28;20640;-74
2021/01/23 00:36:33;;;;;;;26.77;13.97;;;;;;;-144.99;100.00;52554.09;5017659;28;21288;-73
2021/01/23 00:39:00;;;;;;;24.70;12.13;;;;;;;-144.99;100.00;52558.16;5017047;28;20613;-74
2021/01/23 00:41:26;;;;;;;17.27;12.27;;;;;;;-144.99;100.00;52545.94;5024282;28;20657;-74
2021/01/23 00:43:53;;;;;;;17.30;12.63;;;;;;;-144.99;100.00;52531.66;5015836;28;20646;-73
2021/01/23 00:46:21;;;;;;;17.50;13.47;;;;;;;-144.99;100.00;52505.16;5021457;28;20624;-75
2021/01/23 00:48:47;;;;;;;20.67;12.40;;;;;;;-144.99;100.00;52541.84;5022470;28;20632;-72
2021/01/23 00:51:13;;;;;;;22.63;12.90;;;;;;;-144.99;100.00;52525.56;5016777;28;20739;-73
2021/01/23 00:53:40;;;;;;;23.67;15.40;;;;;;;-144.99;100.00;52497.00;5013853;28;20617;-73
2021/01/23 00:56:06;;;;;;;18.73;12.57;;;;;;;-144.99;100.00;52505.16;5007275;28;20745;-73
2021/01/23 00:58:32;;;;;;;17.13;13.53;;;;;;;-144.99;100.00;52574.47;5019195;28;20726;-74
2021/01/23 01:00:58;;;;;;;12.80;10.07;;;;;;;-144.99;100.00;52480.72;5018754;28;20629;-74
2021/01/23 01:03:25;;;;;;;18.07;13.00;;;;;;;-144.99;100.00;52527.59;5017225;28;20681;-74
2021/01/23 01:05:54;;;;;;;15.07;12.43;;;;;;;-144.99;100.00;52529.63;5012444;28;21194;-73
2021/01/23 01:08:21;;;;;;;23.63;15.30;;;;;;;-144.99;100.00;52562.25;5016643;28;20636;-73
2021/01/23 01:10:47;;;;;;;23.80;12.80;;;;;;;-144.99;100.00;52554.09;5022737;28;20653;-73
2021/01/23 01:13:14;;;;;;;22.73;14.67;;;;;;;-144.99;100.00;52537.78;5010426;28;20803;-73
2021/01/23 01:15:42;;;;;;;19.87;14.13;;;;;;;-144.99;100.00;52529.63;5024218;28;20633;-73
2021/01/23 01:18:09;;;;;;;20.03;15.43;;;;;;;-144.99;100.00;52541.84;5008951;28;20696;-73
2021/01/23 01:20:36;;;;;;;19.37;13.60;;;;;;;-144.99;100.00;52537.78;5014331;28;20621;-73
2021/01/23 01:23:02;;;;;;;25.20;15.13;;;;;;;-144.99;100.00;52562.25;5012451;28;20836;-73
2021/01/23 01:25:28;;;;;;;19.43;13.93;;;;;;;-144.99;100.00;52529.63;5013364;28;20728;-73
2021/01/23 01:27:55;;;;;;;19.07;15.13;;;;;;;-144.99;100.00;52537.78;5015358;28;20700;-74
2021/01/23 01:30:22;;;;;;;20.53;14.67;;;;;;;-144.99;100.00;52486.81;5014843;28;20664;-74
2021/01/23 01:32:48;;;;;;;25.10;17.13;;;;;;;-144.99;100.00;52545.94;5018009;28;20680;-74
2021/01/23 01:35:15;;;;;;;23.50;13.80;;;;;;;-144.99;100.00;52521.47;5014377;28;20613;-74
2021/01/23 01:37:41;;;;;;;23.83;14.77;;;;;;;-144.99;100.00;52586.69;5019915;28;20662;-74
2021/01/23 01:40:09;;;;;;;17.93;15.23;;;;;;;-144.99;100.00;52566.31;5016207;28;20621;-74
2021/01/23 01:42:35;;;;;;;23.07;13.70;;;;;;;-144.99;100.00;52539.81;5012571;28;20677;-74
2021/01/23 01:45:01;;;;;;;15.93;14.07;;;;;;;-144.99;100.00;52582.63;5015186;28;20729;-74
2021/01/23 01:47:27;;;;;;;21.13;16.57;;;;;;;-144.99;100.00;52554.09;5018529;28;20716;-74
2021/01/23 01:49:56;;;;;;;17.17;13.57;;;;;;;-144.99;100.00;52537.78;5015134;28;20645;-74
2021/01/23 01:52:22;;;;;;;24.37;15.20;;;;;;;-144.99;100.00;52513.31;5019957;28;20719;-74
2021/01/23 01:54:50;;;;;;;27.87;18.83;;;;;;;-144.99;100.00;52550.00;5019963;28;20716;-74
2021/01/23 01:57:19;;;;;;;22.57;15.20;;;;;;;-144.99;100.00;52521.47;5024804;28;20726;-74
2021/01/23 01:59:45;;;;;;;24.77;15.20;;;;;;;-144.99;100.00;52547.97;5020208;28;20727;-74
2021/01/23 02:02:28;;;;;;;22.70;15.33;;;;;;;-144.99;100.00;52578.53;5018078;28;20715;-74
2021/01/23 02:04:59;;;;;;;26.10;17.03;;;;;;;-144.99;100.00;52517.41;5021199;28;21146;-74
2021/01/23 02:07:41;;;;;;;21.30;15.03;;;;;;;-144.99;100.00;52507.19;5023383;28;20641;-74
2021/01/23 02:10:33;;;;;;;25.23;16.80;;;;;;;-144.99;100.00;52523.50;5013163;28;20624;-74
2021/01/23 02:13:15;;;;;;;25.13;17.33;;;;;;;-144.99;100.00;52492.94;5016871;28;20764;-74
2021/01/23 02:15:47;;;;;;;28.70;19.70;;;;;;;-144.99;100.00;52533.69;5023012;28;21076;-74
2021/01/23 02:18:15;;;;;;;22.40;16.27;;;;;;;-144.99;100.00;52488.84;5014841;28;21238;-75
2021/01/23 02:21:31;;;;;;;28.33;16.23;;;;;;;-144.99;100.00;52554.09;5023554;28;20727;-74
2021/01/23 02:24:02;;;;;;;25.13;16.70;;;;;;;-144.99;100.00;52511.28;5007574;28;20639;-73
2021/01/23 02:26:37;;;;;;;25.57;17.60;;;;;;;-144.99;100.00;52541.84;5021080;28;20730;-73
2021/01/23 02:29:10;;;;;;;22.77;18.10;;;;;;;-144.99;100.00;52545.94;5022635;28;20733;-73
2021/01/23 02:31:40;;;;;;;23.43;16.83;;;;;;;-144.99;100.00;52566.31;5010907;28;20708;-75
2021/01/23 02:34:08;;;;;;;29.00;16.70;;;;;;;-144.99;100.00;52558.16;5021487;28;20633;-73
2021/01/23 02:36:35;;;;;;;28.73;17.53;;;;;;;-144.99;100.00;52566.31;5017300;28;20617;-74
2021/01/23 02:41:43;;;;;;;28.87;19.40;;;;;;;-144.99;100.00;52521.47;5037480;28;21110;-76
2021/01/23 02:44:10;;;;;;;25.27;18.90;;;;;;;-144.99;100.00;52515.34;5047857;28;20628;-77
2021/01/23 02:46:36;;;;;;;26.33;19.43;;;;;;;-144.99;100.00;52499.06;5053067;28;20666;-76
2021/01/23 02:49:04;;;;;;;27.87;18.53;;;;;;;-144.99;100.00;52509.25;5051634;28;21010;-74
2021/01/23 02:51:37;;;;;;;23.67;16.53;;;;;;;-144.99;100.00;52570.38;5050462;28;20737;-77
2021/01/23 02:54:08;;;;;;;26.10;18.50;;;;;;;-144.99;100.00;52533.69;5041549;28;21166;-77
2021/01/23 02:56:36;;;;;;;22.77;20.23;;;;;;;-144.99;100.00;52521.47;5050826;28;20605;-75
2021/01/23 02:59:04;;;;;;;23.53;17.97;;;;;;;-144.99;100.00;52566.31;5051499;28;20723;-75
2021/01/23 03:01:35;;;;;;;26.73;18.47;;;;;;;-144.99;100.00;52562.25;5046759;28;20747;-75
2021/01/23 03:04:03;;;;;;;21.97;19.10;;;;;;;-144.99;100.00;52505.16;5049286;28;21173;-75
2021/01/23 03:06:30;;;;;;;26.93;21.27;;;;;;;-144.99;100.00;52541.84;5046082;28;20623;-76
2021/01/23 03:08:56;;;;;;;34.60;20.57;;;;;;;-144.99;100.00;52497.00;5049865;28;20628;-76
2021/01/23 03:11:22;;;;;;;24.33;19.63;;;;;;;-144.99;100.00;52550.00;5046618;28;21283;-76
2021/01/23 03:13:48;;;;;;;25.63;20.47;;;;;;;-144.99;100.00;52521.47;5043277;28;21338;-76
2021/01/23 03:16:15;;;;;;;28.93;19.23;;;;;;;-144.99;100.00;52545.94;5046714;28;20640;-76
2021/01/23 03:18:41;;;;;;;34.03;20.63;;;;;;;-144.99;100.00;52552.03;5042484;28;20711;-75
2021/01/23 03:21:08;;;;;;;26.37;18.73;;;;;;;-144.99;100.00;52550.00;5041024;28;21287;-75
2021/01/23 03:23:34;;;;;;;25.30;19.00;;;;;;;-144.99;100.00;52529.63;5039166;28;20701;-78
2021/01/23 03:26:00;;;;;;;34.93;22.13;;;;;;;-144.99;100.00;52550.00;5044115;28;20993;-75
2021/01/23 03:28:26;;;;;;;29.70;22.80;;;;;;;-144.99;100.00;52545.94;5047354;28;20630;-76
2021/01/23 03:30:52;;;;;;;28.67;21.50;;;;;;;-144.99;100.00;52521.47;5050904;28;20640;-76
2021/01/23 03:33:18;;;;;;;33.97;21.63;;;;;;;-144.99;100.00;52525.56;5050268;28;20713;-75
2021/01/23 03:35:44;;;;;;;33.43;24.67;;;;;;;-144.99;100.00;52523.50;5042480;28;20631;-75
2021/01/23 03:38:11;;;;;;;29.47;21.03;;;;;;;-144.99;100.00;52517.41;5051311;28;20624;-76
2021/01/23 03:40:38;;;;;;;28.77;19.13;;;;;;;-144.99;100.00;52566.31;5048591;28;20705;-75
2021/01/23 03:43:04;;;;;;;30.77;20.23;;;;;;;-144.99;100.00;52529.63;5043758;28;20643;-75
2021/01/23 03:45:30;;;;;;;33.30;20.97;;;;;;;-144.99;100.00;52562.25;5048837;28;20628;-74
2021/01/23 03:47:56;;;;;;;27.57;19.20;;;;;;;-144.99;100.00;52529.63;5051179;28;20657;-75
2021/01/23 03:50:22;;;;;;;33.27;22.43;;;;;;;-144.99;100.00;52533.69;5049298;28;20651;-77
2021/01/23 03:52:48;;;;;;;27.37;20.30;;;;;;;-144.99;100.00;52521.47;5050957;28;20784;-76
2021/01/23 03:55:16;;;;;;;28.53;21.10;;;;;;;-144.99;100.00;52537.78;5040060;28;20659;-77
2021/01/23 03:57:42;;;;;;;30.07;22.17;;;;;;;-144.99;100.00;52511.28;5049768;28;20665;-77
2021/01/23 04:00:09;;;;;;;38.27;22.17;;;;;;;-144.99;100.00;52517.41;5045158;28;20689;-76
2021/01/23 04:02:35;;;;;;;29.17;20.20;;;;;;;-144.99;100.00;52521.47;5047875;28;20715;-77
2021/01/23 04:05:03;;;;;;;28.23;22.50;;;;;;;-144.99;100.00;52562.25;5046341;28;21204;-77
2021/01/23 04:07:29;;;;;;;30.80;22.13;;;;;;;-144.99;100.00;52570.38;5044669;28;20674;-76
2021/01/23 04:09:55;;;;;;;33.03;23.20;;;;;;;-144.99;100.00;52545.94;5048315;28;21110;-76
2021/01/23 04:12:23;;;;;;;32.27;21.23;;;;;;;-144.99;100.00;52513.31;5049500;28;20636;-77
2021/01/23 04:14:49;;;;;;;30.13;22.70;;;;;;;-144.99;100.00;52562.25;5047700;28;20612;-78
2021/01/23 04:17:15;;;;;;;28.73;25.20;;;;;;;-144.99;100.00;52525.56;5050741;28;20709;-77
2021/01/23 04:19:41;;;;;;;31.60;22.80;;;;;;;-144.99;100.00;52570.38;5045179;28;20676;-77
2021/01/23 04:22:07;;;;;;;32.00;22.13;;;;;;;-144.99;100.00;52550.00;5044001;28;20620;-77
2021/01/23 04:24:33;;;;;;;27.67;21.27;;;;;;;-144.99;100.00;52505.16;5051583;28;20646;-77
2021/01/23 04:26:59;;;;;;;32.30;24.87;;;;;;;-144.99;100.00;52566.31;5049650;28;20690;-77
2021/01/23 04:29:30;;;;;;;36.70;21.67;;;;;;;-144.99;100.00;52554.09;5032818;28;20629;-76
2021/01/23 04:31:56;;;;;;;32.03;22.27;;;;;;;-144.99;100.00;52554.09;5050055;28;21224;-75
2021/01/23 04:34:22;;;;;;;27.53;23.47;;;;;;;-144.99;100.00;52541.84;5048261;28;20989;-76
2021/01/23 04:36:48;;;;;;;27.13;22.33;;;;;;;-144.99;100.00;52533.69;5043707;28;21177;-75
2021/01/23 04:39:14;;;;;;;29.43;21.00;;;;;;;-144.99;100.00;52519.44;5044769;28;21208;-75
2021/01/23 04:41:40;;;;;;;36.93;25.87;;;;;;;-144.99;100.00;52537.78;5050002;28;20623;-76
2021/01/23 04:44:07;;;;;;;35.67;23.97;;;;;;;-144.99;100.00;52517.41;5046736;28;20616;-76
2021/01/23 04:46:34;;;;;;;35.03;24.40;;;;;;;-144.99;100.00;52525.56;5047876;28;20625;-75
2021/01/23 04:49:02;;;;;;;33.60;22.20;;;;;;;-144.99;100.00;52552.03;5048341;28;20635;-75
2021/01/23 04:51:28;;;;;;;31.57;24.30;;;;;;;-144.99;100.00;52545.94;5051059;28;20692;-75
2021/01/23 04:53:55;;;;;;;32.73;23.63;;;;;;;-144.99;100.00;52525.56;5050456;28;20711;-75
2021/01/23 04:56:21;;;;;;;39.23;24.33;;;;;;;-144.99;100.00;52509.25;5046266;28;20632;-75
2021/01/23 04:58:47;;;;;;;41.77;24.57;;;;;;;-144.99;100.00;52586.69;5050151;28;21255;-74
2021/01/23 05:01:14;;;;;;;33.37;21.53;;;;;;;-144.99;100.00;52484.78;5050442;28;20652;-74
2021/01/23 05:03:58;;;;;;;33.90;22.70;;;;;;;-144.99;100.00;52541.84;5049438;28;20628;-75
2021/01/23 05:06:25;;;;;;;38.07;25.63;;;;;;;-144.99;100.00;52545.94;5050170;28;20989;-73
2021/01/23 05:08:51;;;;;;;41.47;26.70;;;;;;;-144.99;100.00;52523.50;5036674;28;20624;-73
2021/01/23 05:11:18;;;;;;;37.00;25.73;;;;;;;-144.99;100.00;52511.28;5049422;28;21064;-76
2021/01/23 05:14:00;;;;;;;37.00;25.40;;;;;;;-144.99;100.00;52550.00;5047529;28;21267;-76
2021/01/23 05:16:26;;;;;;;44.87;26.57;;;;;;;-144.99;100.00;52505.16;5048868;28;20655;-77
2021/01/23 05:18:57;;;;;;;37.90;25.93;;;;;;;-144.99;100.00;52525.56;5046386;28;20616;-75
2021/01/23 05:21:23;;;;;;;34.07;24.47;;;;;;;-144.99;100.00;52509.25;5048318;28;20690;-76
2021/01/23 05:24:02;;;;;;;32.43;22.30;;;;;;;-144.99;100.00;52566.31;5038693;28;21213;-77
2021/01/23 05:26:29;;;;;;;39.53;25.90;;;;;;;-144.99;100.00;52541.84;5040323;28;20624;-77
2021/01/23 05:29:05;;;;;;;44.63;27.23;;;;;;;-144.99;100.00;52509.25;5044397;28;20625;-75
2021/01/23 05:31:32;;;;;;;36.90;23.93;;;;;;;-144.99;100.00;52550.00;5041618;28;20643;-76
2021/01/23 05:33:59;;;;;;;30.40;21.83;;;;;;;-144.99;100.00;52562.25;5047299;28;20657;-73
2021/01/23 05:36:25;;;;;;;39.03;25.90;;;;;;;-144.99;100.00;52550.00;5045336;28;20656;-75
2021/01/23 05:38:51;;;;;;;41.40;26.97;;;;;;;-144.99;100.00;52501.09;5045946;28;20667;-73
2021/01/23 05:41:18;;;;;;;33.80;23.83;;;;;;;-144.99;100.00;52529.63;5044137;28;21066;-73
2021/01/23 05:43:45;;;;;;;43.73;26.30;;;;;;;-144.99;100.00;52517.41;5045667;28;20725;-74
2021/01/23 05:46:12;;;;;;;40.47;25.87;;;;;;;-144.99;100.00;52513.31;5042907;28;20991;-75
2021/01/23 05:48:42;;;;;;;42.93;28.53;;;;;;;-144.99;100.00;52558.16;5047446;28;20891;-75
2021/01/23 05:51:10;;;;;;;34.37;23.87;;;;;;;-144.99;100.00;52533.69;5047844;28;21045;-75
2021/01/23 05:53:36;;;;;;;36.53;27.83;;;;;;;-144.99;100.00;52525.56;5048277;28;20695;-78
2021/01/23 05:56:03;;;;;;;40.57;28.67;;;;;;;-144.99;100.00;52525.56;5041162;28;20659;-78
2021/01/23 05:58:30;;;;;;;42.47;26.27;;;;;;;-144.99;100.00;52511.28;5047341;28;20674;-78
2021/01/23 06:00:58;;;;;;;39.30;28.23;;;;;;;-144.99;100.00;52537.78;5047819;28;20651;-78
2021/01/23 06:03:26;;;;;;;41.00;25.33;;;;;;;-144.99;100.00;52574.47;5047822;28;20670;-78
2021/01/23 06:05:56;;;;;;;37.43;25.83;;;;;;;-144.99;100.00;52505.16;5043163;28;21115;-77
2021/01/23 06:08:39;;;;;;;39.97;27.13;;;;;;;-144.99;100.00;52509.25;5048321;28;20711;-77
2021/01/23 06:11:06;;;;;;;36.47;26.87;;;;;;;-144.99;100.00;52492.94;5043811;28;20738;-74
2021/01/23 06:13:37;;;;;;;37.47;25.40;;;;;;;-144.99;100.00;52492.94;5039060;28;20751;-75
2021/01/23 06:16:05;;;;;;;39.63;26.00;;;;;;;-144.99;100.00;52537.78;5045730;28;20643;-76
2021/01/23 06:18:32;;;;;;;45.03;27.30;;;;;;;-144.99;100.00;52515.34;5037597;28;20618;-76
2021/01/23 06:20:59;;;;;;;36.33;26.80;;;;;;;-144.99;100.00;52515.34;5040954;28;20751;-77
2021/01/23 06:23:50;;;;;;;41.77;27.77;;;;;;;-144.99;100.00;52537.78;5035929;28;20656;-76
2021/01/23 06:26:17;;;;;;;36.37;26.20;;;;;;;-144.99;100.00;52545.94;5043722;28;20693;-76
2021/01/23 06:28:53;;;;;;;40.43;29.70;;;;;;;-144.99;100.00;52521.47;5043067;28;20747;-75
2021/01/23 06:31:33;;;;;;;34.07;25.63;;;;;;;-144.99;100.00;52552.03;5044295;28;20682;-75
2021/01/23 06:34:15;;;;;;;36.30;26.43;;;;;;;-144.99;100.00;52554.09;5037449;28;20635;-75
2021/01/23 06:36:41;;;;;;;38.70;27.40;;;;;;;-144.99;100.00;52525.56;5035642;28;21169;-76
2021/01/23 06:39:12;;;;;;;33.40;25.47;;;;;;;-144.99;100.00;52519.44;5051768;28;20640;-76
2021/01/23 06:41:38;;;;;;;38.10;26.53;;;;;;;-144.99;100.00;52560.19;5058668;28;21276;-76
2021/01/23 06:44:21;;;;;;;38.80;25.70;;;;;;;-144.99;100.00;52537.78;5051279;28;20648;-75
2021/01/23 06:46:57;;;;;;;42.47;26.03;;;;;;;-144.99;100.00;52615.25;5043634;28;20722;-78
2021/01/23 06:49:25;;;;;;;33.97;25.87;;;;;;;-144.99;100.00;52505.16;5041337;28;20620;-76
2021/01/23 06:52:03;;;;;;;36.27;25.33;;;;;;;-144.99;100.00;52480.72;5049315;28;20658;-77
2021/01/23 06:54:30;;;;;;;38.03;25.50;;;;;;;-144.99;100.00;52543.91;5047159;28;20651;-77
2021/01/23 06:56:56;;;;;;;38.47;26.50;;;;;;;-144.99;100.00;52509.25;5049104;28;20623;-74
2021/01/23 06:59:25;;;;;;;42.80;29.47;;;;;;;-144.99;100.00;52499.06;5049578;28;20663;-76
2021/01/23 07:01:59;;;;;;;50.70;34.20;;;;;;;-144.99;100.00;52541.84;5045110;28;20714;-76
2021/01/23 07:04:25;;;;;;;51.30;33.90;;;;;;;-144.99;100.00;52554.09;5046580;28;21022;-76
2021/01/23 07:06:53;;;;;;;39.50;27.53;;;;;;;-144.99;100.00;52517.41;5052151;28;20616;-74
2021/01/23 07:09:20;;;;;;;39.80;26.97;;;;;;;-144.99;100.00;52525.56;5047871;28;21264;-76
2021/01/23 07:11:47;;;;;;;45.10;27.40;;;;;;;-144.99;100.00;52558.16;5049938;28;20639;-75
2021/01/23 07:14:13;;;;;;;40.00;27.53;;;;;;;-144.99;100.00;52541.84;5048850;28;21245;-76
2021/01/23 07:16:51;;;;;;;43.17;29.00;;;;;;;-144.99;100.00;52525.56;5051566;28;20717;-77
2021/01/23 07:19:17;;;;;;;37.70;28.53;;;;;;;-144.99;100.00;52562.25;5032705;28;20631;-77
2021/01/23 07:21:46;;;;;;;38.57;27.23;;;;;;;-144.99;100.00;52503.13;5043138;28;20644;-77
2021/01/23 07:24:12;;;;;;;42.20;27.57;;;;;;;-144.99;100.00;52513.31;5047383;28;20628;-77
2021/01/23 07:26:39;;;;;;;39.90;28.60;;;;;;;-144.99;100.00;52545.94;5034638;28;20740;-76
2021/01/23 07:29:09;;;;;;;39.27;25.83;;;;;;;-144.99;100.00;52478.66;5049854;28;20628;-78
2021/01/23 07:31:35;;;;;;;40.23;29.10;;;;;;;-144.99;100.00;52543.91;5050258;28;20655;-77
2021/01/23 07:34:09;;;;;;;39.30;27.17;;;;;;;-144.99;100.00;52517.41;5049121;28;20710;-77
2021/01/23 07:36:37;;;;;;;36.33;26.60;;;;;;;-144.99;100.00;52509.25;5047726;28;20641;-77
2021/01/23 07:39:08;;;;;;;37.47;27.03;;;;;;;-144.99;100.00;52488.84;5045042;28;20771;-74
2021/01/23 07:41:36;;;;;;;41.80;25.83;;;;;;;-144.99;100.00;52554.09;5050848;28;20687;-76
2021/01/23 07:44:04;;;;;;;44.87;32.57;;;;;;;-144.99;100.00;52545.94;5051015;28;20631;-74
2021/01/23 07:46:39;;;;;;;38.27;28.40;;;;;;;-144.99;100.00;52482.75;5049441;28;20628;-76
2021/01/23 07:49:07;;;;;;;43.83;30.70;;;;;;;-144.99;100.00;52521.47;5048104;28;20616;-77
2021/01/23 07:51:33;;;;;;;38.93;27.70;;;;;;;-144.99;100.00;52523.50;5051086;28;20692;-74
2021/01/23 07:54:07;;;;;;;41.37;27.83;;;;;;;-144.99;100.00;52537.78;5050112;28;21450;-75
2021/01/23 07:56:33;;;;;;;49.97;28.33;;;;;;;-144.99;100.00;52517.41;5047834;28;20726;-79
2021/01/23 07:59:00;;;;;;;44.70;26.43;;;;;;;-144.99;100.00;52513.31;5050352;28;20628;-75
2021/01/23 08:01:26;;;;;;;42.57;26.73;;;;;;;-144.99;100.00;52558.16;5046771;28;20672;-74
2021/01/23 08:03:54;;;;;;;48.57;28.93;;;;;;;-144.99;100.00;52454.22;5049190;28;20737;-75
2021/01/23 08:06:21;;;;;;;39.50;27.33;;;;;;;-144.99;100.00;52525.56;5044695;28;20702;-74
2021/01/23 08:08:48;;;;;;;40.53;27.40;;;;;;;-144.99;100.00;52550.00;5048642;28;20628;-74
2021/01/23 08:11:33;;;;;;;48.83;31.27;;;;;;;-144.99;100.00;52525.56;5044964;28;20648;-73
2021/01/23 08:14:07;;;;;;;48.47;33.13;;;;;;;-144.99;100.00;52533.69;5036807;28;21240;-73
2021/01/23 08:16:33;;;;;;;39.97;29.77;;;;;;;-144.99;100.00;52517.41;5050228;28;20673;-72
2021/01/23 08:19:15;;;;;;;47.03;32.07;;;;;;;-144.99;100.00;52490.91;5046794;28;21036;-73
2021/01/23 08:21:41;;;;;;;46.87;33.97;;;;;;;-144.99;100.00;52501.09;5048270;28;20667;-72
2021/01/23 08:24:28;;;;;;;46.13;28.93;;;;;;;-144.99;100.00;52529.63;5040945;28;20723;-75
2021/01/23 08:26:54;;;;;;;43.33;29.47;;;;;;;-144.99;100.00;52509.25;5049031;28;21387;-75
2021/01/23 08:29:20;;;;;;;46.97;26.57;;;;;;;-144.99;100.00;52519.44;5047197;28;20730;-73
2021/01/23 08:32:00;;;;;;;42.90;27.17;;;;;;;-144.99;100.00;52509.25;5047889;28;20627;-74
2021/01/23 08:34:27;;;;;;;46.90;26.63;;;;;;;-144.99;100.00;52492.94;5044574;28;20620;-73
2021/01/23 08:36:53;;;;;;;43.87;28.60;;;;;;;-144.99;100.00;52509.25;5047775;28;20623;-72
2021/01/23 08:39:19;;;;;;;48.20;30.03;;;;;;;-144.99;100.00;52521.47;5045092;28;20673;-72
2021/01/23 08:41:45;;;;;;;42.37;29.17;;;;;;;-144.99;100.00;52513.31;5075612;22;20735;-73
2021/01/23 08:44:11;;;;;;;40.63;28.37;;;;;;;-144.99;100.00;52521.47;5031142;28;20665;-70
2021/01/23 08:46:37;;;;;;;40.00;26.50;;;;;;;-144.99;100.00;52525.56;5038363;28;20660;-72
2021/01/23 08:49:04;;;;;;;40.93;24.20;;;;;;;-144.99;100.00;52554.09;5035655;28;20708;-72
2021/01/23 08:51:33;;;;;;;40.27;28.00;;;;;;;-144.99;100.00;52505.16;5043197;28;21270;-73
2021/01/23 08:53:59;;;;;;;42.13;28.90;;;;;;;-144.99;100.00;52492.94;5041321;28;20666;-74
2021/01/23 08:56:25;;;;;;;38.80;27.07;;;;;;;-144.99;100.00;52513.31;5044508;28;20731;-73
2021/01/23 08:58:52;;;;;;;42.23;26.67;;;;;;;-144.99;100.00;52497.00;5038640;28;20673;-72
2021/01/23 09:01:18;;;;;;;43.37;25.93;;;;;;;-144.99;100.00;52521.47;5036467;28;20731;-74
2021/01/23 09:03:44;;;;;;;42.97;27.30;;;;;;;-144.99;100.00;52519.44;5030350;28;20609;-71
2021/01/23 09:06:10;;;;;;;40.50;26.80;;;;;;;-144.99;100.00;52533.69;5040000;28;21000;-75
2021/01/23 09:08:37;;;;;;;36.33;24.83;;;;;;;-144.99;100.00;52497.00;5038050;28;20612;-76
2021/01/23 09:11:03;;;;;;;38.13;26.60;;;;;;;-144.99;100.00;52517.41;5035841;28;20730;-73
2021/01/23 09:13:29;;;;;;;40.17;27.13;;;;;;;-144.99;100.00;52554.09;5041509;28;20682;-75
2021/01/23 09:15:56;;;;;;;47.97;28.77;;;;;;;-144.99;100.00;52509.25;5039410;28;20933;-72
2021/01/23 09:18:22;;;;;;;48.43;32.70;;;;;;;-144.99;100.00;52517.41;5033781;28;20782;-73
2021/01/23 09:20:48;;;;;;;45.87;32.13;;;;;;;-144.99;100.00;52517.41;5046214;28;20648;-75
2021/01/23 09:23:14;;;;;;;51.83;31.17;;;;;;;-144.99;100.00;52537.78;5039108;28;20624;-74
2021/01/23 09:25:42;;;;;;;40.63;25.70;;;;;;;-144.99;100.00;52529.63;5038441;28;20629;-74
2021/01/23 09:28:09;;;;;;;46.47;28.17;;;;;;;-144.99;100.00;52472.56;5041866;28;20620;-74
2021/01/23 09:30:36;;;;;;;46.30;28.43;;;;;;;-144.99;100.00;52482.75;5045497;28;20646;-73
2021/01/23 09:33:02;;;;;;;41.50;29.20;;;;;;;-144.99;100.00;52484.78;5042212;28;20771;-73
2021/01/23 09:35:28;;;;;;;41.27;29.47;;;;;;;-144.99;100.00;52497.00;5044421;28;20670;-74
2021/01/23 09:37:54;;;;;;;42.93;30.70;;;;;;;-144.99;100.00;52492.94;5045484;28;20670;-74
2021/01/23 09:40:20;;;;;;;44.20;29.93;;;;;;;-144.99;100.00;52497.00;5035009;28;20659;-75
2021/01/23 09:42:47;;;;;;;36.73;24.77;;;;;;;-144.99;100.00;52492.94;5045217;28;20888;-73
2021/01/23 09:45:14;;;;;;;42.10;26.23;;;;;;;-144.99;100.00;52501.09;5035596;28;20645;-72
2021/01/23 09:47:40;;;;;;;31.93;25.77;;;;;;;-144.99;100.00;52448.09;5032241;28;20641;-73
2021/01/23 09:50:07;;;;;;;39.67;27.03;;;;;;;-144.99;100.00;52476.63;5048041;28;20623;-72
2021/01/23 09:52:33;;;;;;;39.37;25.87;;;;;;;-144.99;99.49;52452.16;5040925;28;21088;-73
2021/01/23 09:54:59;;;;;;;35.47;24.17;;;;;;;-144.99;98.44;52448.09;5042970;28;20641;-73
2021/01/23 09:57:26;;;;;;;38.00;22.87;;;;;;;-144.99;96.26;52448.09;5046855;28;20612;-73
2021/01/23 09:59:53;;;;;;;31.07;21.97;;;;;;;-144.99;94.45;52470.50;5047719;28;20687;-72
2021/01/23 10:02:19;;;;;;;38.60;21.87;;;;;;;-144.99;92.12;52407.31;5039280;28;21329;-73
2021/01/23 10:04:45;;;;;;;27.33;18.67;;;;;;;-144.99;89.29;52441.97;5037367;28;20653;-73
2021/01/23 10:07:11;;;;;;;31.00;20.67;;;;;;;-144.99;88.90;52501.09;5041049;28;20645;-73
2021/01/23 10:09:37;;;;;;;26.03;19.03;;;;;;;-144.99;88.13;52468.47;5039155;28;20671;-73
2021/01/23 10:12:04;;;;;;;33.40;20.60;;;;;;;-144.99;86.67;52456.25;5040123;28;21324;-73
2021/01/23 10:14:30;;;;;;;29.47;18.83;;;;;;;-144.99;85.67;52448.09;5041448;28;20632;-73
2021/01/23 10:16:57;;;;;;;23.20;17.80;;;;;;;-144.99;86.73;52474.59;5041874;28;20609;-72
2021/01/23 10:19:23;;;;;;;26.43;18.37;;;;;;;-144.99;88.44;52484.78;5038752;28;20631;-72
2021/01/23 10:21:49;;;;;;;22.73;17.83;;;;;;;-144.99;89.63;52505.16;5036779;28;20873;-74
2021/01/23 10:24:15;;;;;;;25.00;18.23;;;;;;;-144.99;91.04;52497.00;5051285;28;20663;-72
2021/01/23 10:26:42;;;;;;;31.20;17.40;;;;;;;-144.99;92.23;52517.41;5044132;28;20740;-73
2021/01/23 10:29:08;;;;;;;27.87;18.17;;;;;;;-144.99;93.08;52480.72;5036961;28;20621;-74
2021/01/23 10:31:34;;;;;;;27.90;18.07;;;;;;;-144.99;94.17;52480.72;5039759;28;20657;-74
2021/01/23 10:34:01;;;;;;;30.73;18.37;;;;;;;-144.99;94.95;52482.75;5040144;28;20652;-72
2021/01/23 10:36:27;;;;;;;30.83;18.47;;;;;;;-144.99;94.96;52497.00;5039803;28;20991;-74
2021/01/23 10:38:54;;;;;;;29.57;21.30;;;;;;;-144.99;94.60;52521.47;5043556;28;21061;-73
2021/01/23 10:41:20;;;;;;;36.10;21.37;;;;;;;-144.99;94.72;52497.00;5045864;28;21171;-73
2021/01/23 10:43:47;;;;;;;32.57;19.73;;;;;;;-144.99;94.60;52490.91;5039826;28;20608;-75
2021/01/23 10:46:13;;;;;;;33.47;23.10;;;;;;;-144.99;93.47;52431.78;5044982;28;20624;-73
2021/01/23 10:48:40;;;;;;;30.70;21.67;;;;;;;-144.99;91.02;52419.56;5040317;28;20658;-74
2021/01/23 10:51:08;;;;;;;29.53;20.50;;;;;;;-144.99;88.04;52472.56;5045397;28;20659;-73
2021/01/23 10:53:35;;;;;;;26.00;18.13;;;;;;;-144.99;84.74;52395.09;5042501;28;20710;-74
2021/01/23 10:56:01;;;;;;;30.50;17.63;;;;;;;-144.99;83.34;52407.31;5046153;28;21177;-71
2021/01/23 10:58:27;;;;;;;25.97;17.63;;;;;;;-144.99;81.30;52423.63;5047489;28;20623;-73
2021/01/23 11:00:54;;;;;;;31.73;15.73;;;;;;;-144.99;79.91;52407.31;5047020;28;21264;-73
2021/01/23 11:03:21;;;;;;;28.57;17.40;;;;;;;-144.99;78.57;52386.94;5037453;28;20668;-73